createdAt,value
2018-04-23T00:01:39.595Z,58.46
2018-04-23T00:04:05.902Z,58.06
2018-04-23T00:06:32.200Z,57.13
2018-04-23T00:08:58.512Z,56.29
2018-04-23T00:11:24.864Z,55.75
2018-04-23T00:13:51.144Z,56.05
2018-04-23T00:16:18.197Z,55.71
2018-04-23T00:18:44.479Z,55.66
2018-04-23T00:21:10.811Z,56.04
2018-04-23T00:23:37.083Z,55.88
2018-04-23T00:26:04.178Z,54.81
2018-04-23T00:28:30.478Z,54.37
2018-04-23T00:30:56.753Z,54.29
2018-04-23T00:33:23.026Z,55.47
2018-04-23T00:35:49.302Z,57.99
2018-04-23T00:38:15.598Z,59.29
2018-04-23T00:40:41.826Z,56.58
2018-04-23T00:43:08.085Z,58.67
2018-04-23T00:45:34.394Z,60.95
2018-04-23T00:48:00.669Z,61.41
2018-04-23T00:50:26.958Z,61.45
2018-04-23T00:55:59.372Z,61.78
2018-04-23T00:58:25.678Z,61.74
2018-04-23T01:00:51.997Z,62.42
2018-04-23T01:03:18.515Z,62.89
2018-04-23T01:05:45.572Z,63.11
2018-04-23T01:08:11.897Z,62.79
2018-04-23T01:10:38.949Z,62.35
2018-04-23T01:13:06.018Z,62.27
2018-04-23T01:15:32.335Z,62.66
2018-04-23T01:17:58.702Z,63.50
2018-04-23T01:20:25.024Z,66.11
2018-04-23T01:22:51.357Z,67.24
2018-04-23T01:25:17.714Z,67.49
2018-04-23T01:27:44.033Z,67.45
2018-04-23T01:30:10.349Z,66.18
2018-04-23T01:32:36.645Z,65.39
2018-04-23T01:35:03.646Z,65.15
2018-04-23T01:37:29.920Z,65.27
2018-04-23T01:39:56.976Z,64.88
2018-04-23T01:42:24.089Z,65.22
2018-04-23T01:44:50.377Z,65.55
2018-04-23T01:47:16.672Z,65.86
2018-04-23T01:49:43.703Z,65.89
2018-04-23T01:52:10.015Z,66.44
2018-04-23T01:54:36.337Z,66.36
2018-04-23T01:57:02.626Z,66.24
2018-04-23T01:59:29.696Z,66.25
2018-04-23T02:01:56.021Z,66.20
2018-04-23T02:04:22.380Z,66.06
2018-04-23T02:06:48.685Z,66.03
2018-04-23T02:09:15.007Z,66.34
2018-04-23T02:11:41.289Z,66.48
2018-04-23T02:14:07.636Z,66.33
2018-04-23T02:16:33.944Z,66.04
2018-04-23T02:19:00.217Z,65.90
2018-04-23T02:21:27.265Z,65.97
2018-04-23T02:23:54.319Z,65.64
2018-04-23T02:26:21.615Z,65.61
2018-04-23T02:28:47.960Z,65.80
2018-04-23T02:31:14.485Z,65.64
2018-04-23T02:33:40.771Z,66.05
2018-04-23T02:36:07.067Z,66.24
2018-04-23T02:38:33.364Z,66.21
2018-04-23T02:40:59.696Z,66.68
2018-04-23T02:43:26.008Z,66.70
2018-04-23T02:45:52.527Z,66.54
2018-04-23T02:48:19.559Z,66.16
2018-04-23T02:50:46.626Z,65.85
2018-04-23T02:53:12.932Z,66.32
2018-04-23T02:55:39.972Z,66.80
2018-04-23T02:58:06.261Z,66.86
2018-04-23T03:00:32.566Z,67.20
2018-04-23T03:02:59.691Z,66.73
2018-04-23T03:05:26.051Z,67.14
2018-04-23T03:07:52.341Z,67.33
2018-04-23T03:10:18.619Z,67.96
2018-04-23T03:12:44.896Z,68.66
2018-04-23T03:15:11.196Z,69.65
2018-04-23T03:17:37.471Z,70.31
2018-04-23T03:20:04.499Z,69.92
2018-04-23T03:22:30.769Z,70.25
2018-04-23T03:24:57.895Z,70.25
2018-04-23T03:27:24.195Z,70.73
2018-04-23T03:29:50.458Z,70.61
2018-04-23T03:32:16.742Z,71.00
2018-04-23T03:34:43.005Z,71.30
2018-04-23T03:37:09.311Z,71.30
2018-04-23T03:39:35.592Z,71.09
2018-04-23T03:42:02.671Z,71.44
2018-04-23T03:44:28.994Z,71.48
2018-04-23T03:46:55.321Z,71.86
2018-04-23T03:49:21.594Z,72.28
2018-04-23T03:51:47.862Z,72.26
2018-04-23T03:54:14.921Z,72.08
2018-04-23T03:56:42.008Z,72.13
2018-04-23T03:59:09.383Z,72.27
2018-04-23T04:01:38.480Z,72.12
2018-04-23T04:04:04.771Z,71.61
2018-04-23T04:06:31.065Z,71.21
2018-04-23T04:08:58.148Z,70.63
2018-04-23T04:11:24.463Z,70.75
2018-04-23T04:17:05.251Z,68.60
2018-04-23T04:19:31.531Z,68.13
2018-04-23T04:21:57.807Z,67.67
2018-04-23T04:24:24.879Z,67.75
2018-04-23T04:26:51.153Z,67.72
2018-04-23T04:29:17.471Z,67.41
2018-04-23T04:31:43.762Z,67.42
2018-04-23T04:34:10.044Z,67.63
2018-04-23T04:36:36.287Z,67.14
2018-04-23T04:39:02.571Z,67.23
2018-04-23T04:41:28.838Z,66.49
2018-04-23T04:43:55.162Z,65.88
2018-04-23T04:46:21.446Z,64.99
2018-04-23T04:48:47.758Z,62.43
2018-04-23T04:51:14.730Z,61.98
2018-04-23T04:53:41.005Z,60.75
2018-04-23T04:56:07.313Z,59.64
2018-04-23T04:58:34.631Z,60.73
2018-04-23T05:01:00.915Z,59.59
2018-04-23T05:03:27.230Z,59.63
2018-04-23T05:05:53.612Z,60.26
2018-04-23T05:08:19.897Z,58.83
2018-04-23T05:10:46.180Z,59.26
2018-04-23T05:13:12.473Z,58.19
2018-04-23T05:15:39.656Z,57.36
2018-04-23T05:18:05.944Z,57.25
2018-04-23T05:20:32.230Z,56.05
2018-04-23T05:22:58.532Z,55.67
2018-04-23T05:25:24.844Z,55.17
2018-04-23T05:27:51.112Z,54.65
2018-04-23T05:30:18.149Z,54.38
2018-04-23T05:32:45.155Z,53.78
2018-04-23T05:35:11.454Z,54.62
2018-04-23T05:37:37.734Z,54.48
2018-04-23T05:40:04.030Z,53.59
2018-04-23T05:42:30.361Z,53.09
2018-04-23T05:44:56.662Z,53.63
2018-04-23T05:47:22.928Z,53.10
2018-04-23T05:49:49.216Z,52.54
2018-04-23T05:52:16.265Z,52.43
2018-04-23T05:54:43.295Z,51.07
2018-04-23T05:57:10.291Z,50.11
2018-04-23T05:59:36.636Z,49.72
2018-04-23T06:02:02.965Z,49.21
2018-04-23T06:04:29.246Z,47.22
2018-04-23T06:06:56.640Z,46.36
2018-04-23T06:09:22.894Z,46.31
2018-04-23T06:11:49.193Z,46.26
2018-04-23T06:14:15.478Z,45.61
2018-04-23T06:16:41.779Z,44.86
2018-04-23T06:19:08.098Z,44.57
2018-04-23T06:22:00.676Z,44.04
2018-04-23T06:24:28.992Z,44.45
2018-04-23T06:26:55.277Z,43.96
2018-04-23T06:29:21.580Z,42.14
2018-04-23T06:31:47.887Z,42.78
2018-04-23T06:34:14.202Z,41.29
2018-04-23T06:36:41.280Z,41.63
2018-04-23T06:39:07.573Z,41.81
2018-04-23T06:41:34.641Z,43.23
2018-04-23T06:44:00.939Z,41.83
2018-04-23T06:46:27.322Z,43.52
2018-04-23T06:48:53.614Z,44.61
2018-04-23T06:51:20.730Z,43.78
2018-04-23T06:53:47.039Z,45.18
2018-04-23T06:56:13.306Z,45.03
2018-04-23T06:58:39.843Z,46.44
2018-04-23T07:01:06.155Z,46.62
2018-04-23T07:03:32.544Z,45.81
2018-04-23T07:05:58.920Z,46.51
2018-04-23T07:08:25.250Z,46.08
2018-04-23T07:10:51.594Z,45.47
2018-04-23T07:13:17.953Z,44.62
2018-04-23T07:15:44.989Z,43.45
2018-04-23T07:18:11.275Z,43.74
2018-04-23T07:20:37.584Z,43.29
2018-04-23T07:23:03.995Z,43.11
2018-04-23T07:25:33.592Z,43.03
2018-04-23T07:28:00.809Z,42.12
2018-04-23T07:30:27.116Z,40.92
2018-04-23T07:32:53.462Z,40.65
2018-04-23T07:35:19.771Z,40.69
2018-04-23T07:37:47.150Z,40.83
2018-04-23T07:40:13.460Z,40.44
2018-04-23T07:42:39.951Z,40.16
2018-04-23T07:45:06.462Z,39.41
2018-04-23T07:47:32.819Z,40.84
2018-04-23T07:49:59.193Z,41.86
2018-04-23T07:52:25.524Z,43.28
2018-04-23T07:54:51.818Z,43.86
2018-04-23T07:57:18.128Z,43.60
2018-04-23T07:59:44.511Z,45.41
2018-04-23T08:02:10.957Z,45.05
2018-04-23T08:04:37.555Z,44.32
2018-04-23T08:07:04.050Z,43.73
2018-04-23T08:09:30.395Z,43.68
2018-04-23T08:11:56.753Z,43.62
2018-04-23T08:14:23.053Z,43.25
2018-04-23T08:16:49.407Z,42.23
2018-04-23T08:19:17.216Z,42.30
2018-04-23T08:21:43.582Z,42.98
2018-04-23T08:24:09.917Z,42.27
2018-04-23T08:26:36.223Z,41.51
2018-04-23T08:29:02.528Z,41.74
2018-04-23T08:31:29.610Z,42.77
2018-04-23T08:33:55.925Z,42.86
2018-04-23T08:36:22.235Z,42.56
2018-04-23T08:38:49.315Z,41.46
2018-04-23T08:41:15.668Z,40.02
2018-04-23T08:43:42.039Z,39.85
2018-04-23T08:46:08.327Z,39.28
2018-04-23T08:48:34.638Z,39.78
2018-04-23T08:51:00.979Z,39.31
2018-04-23T08:53:27.277Z,38.70
2018-04-23T08:55:54.353Z,39.58
2018-04-23T08:58:21.389Z,38.22
2018-04-23T09:00:47.702Z,38.13
2018-04-23T09:03:14.694Z,40.33
2018-04-23T09:05:41.022Z,38.88
2018-04-23T09:08:07.307Z,40.43
2018-04-23T09:10:34.347Z,41.64
2018-04-23T09:13:01.407Z,42.60
2018-04-23T09:15:28.431Z,43.28
2018-04-23T09:17:54.683Z,44.47
2018-04-23T09:20:20.974Z,43.94
2018-04-23T09:22:47.268Z,43.53
2018-04-23T09:25:13.562Z,43.91
2018-04-23T09:27:40.609Z,45.69
2018-04-23T09:30:07.655Z,44.35
2018-04-23T09:32:34.658Z,44.17
2018-04-23T09:35:00.932Z,43.13
2018-04-23T09:37:27.957Z,42.79
2018-04-23T09:39:54.238Z,42.88
2018-04-23T09:42:20.493Z,41.83
2018-04-23T09:44:46.803Z,42.21
2018-04-23T09:47:13.131Z,43.02
2018-04-23T09:49:39.435Z,42.32
2018-04-23T09:52:06.443Z,43.65
2018-04-23T09:54:32.705Z,44.58
2018-04-23T09:56:59.009Z,41.79
2018-04-23T09:59:25.263Z,40.54
2018-04-23T10:01:51.569Z,41.22
2018-04-23T10:04:20.834Z,41.15
2018-04-23T10:06:47.142Z,40.57
2018-04-23T10:09:14.175Z,41.25
2018-04-23T10:11:40.486Z,40.98
2018-04-23T10:14:06.970Z,41.17
2018-04-23T10:16:33.272Z,40.24
2018-04-23T10:18:59.576Z,39.88
2018-04-23T10:21:25.929Z,39.42
2018-04-23T10:23:52.258Z,39.38
2018-04-23T10:26:18.566Z,40.27
2018-04-23T10:28:44.923Z,40.74
2018-04-23T10:31:11.235Z,41.25
2018-04-23T10:33:37.596Z,41.00
2018-04-23T10:36:04.659Z,41.29
2018-04-23T10:38:30.939Z,41.09
2018-04-23T10:40:57.214Z,39.76
2018-04-23T10:43:24.216Z,39.17
2018-04-23T10:45:50.532Z,41.41
2018-04-23T10:48:16.832Z,44.49
2018-04-23T10:50:43.180Z,45.49
2018-04-23T10:53:09.489Z,44.67
2018-04-23T10:55:36.565Z,45.38
2018-04-23T10:58:02.937Z,45.23
2018-04-23T11:00:29.233Z,43.56
2018-04-23T11:02:55.502Z,42.50
2018-04-23T11:05:21.776Z,41.96
2018-04-23T11:07:48.054Z,44.11
2018-04-23T11:10:14.473Z,45.45
2018-04-23T11:12:40.739Z,45.60
2018-04-23T11:15:07.788Z,44.14
2018-04-23T11:17:34.166Z,43.70
2018-04-23T11:20:00.466Z,43.89
2018-04-23T11:22:26.800Z,45.39
2018-04-23T11:24:53.257Z,47.22
2018-04-23T11:27:19.573Z,47.71
2018-04-23T11:29:45.854Z,47.76
2018-04-23T11:32:12.941Z,48.64
2018-04-23T11:34:39.235Z,48.70
2018-04-23T11:37:06.999Z,49.68
2018-04-23T11:39:34.007Z,49.12
2018-04-23T11:42:00.286Z,50.51
2018-04-23T11:44:26.616Z,50.37
2018-04-23T11:46:52.911Z,48.31
2018-04-23T11:49:19.274Z,48.82
2018-04-23T11:51:45.559Z,49.86
2018-04-23T11:54:11.828Z,50.43
2018-04-23T11:56:38.217Z,50.89
2018-04-23T11:59:04.499Z,50.91
2018-04-23T12:01:30.748Z,50.84
2018-04-23T12:03:57.813Z,51.42
2018-04-23T12:06:24.105Z,51.16
2018-04-23T12:08:50.698Z,49.97
2018-04-23T12:11:17.274Z,50.30
2018-04-23T12:13:43.520Z,49.64
2018-04-23T12:16:09.838Z,49.08
2018-04-23T12:18:43.095Z,47.52
2018-04-23T12:21:09.455Z,47.52
2018-04-23T12:23:35.761Z,47.34
2018-04-23T12:26:02.102Z,46.68
2018-04-23T12:28:28.377Z,46.23
2018-04-23T12:30:55.407Z,45.75
2018-04-23T12:33:21.689Z,46.52
2018-04-23T12:35:47.954Z,46.85
2018-04-23T12:38:14.290Z,47.41
2018-04-23T12:40:40.580Z,47.16
2018-04-23T12:43:06.888Z,46.21
2018-04-23T12:45:33.924Z,46.30
2018-04-23T12:48:01.714Z,45.94
2018-04-23T12:50:28.051Z,45.98
2018-04-23T12:52:54.323Z,43.94
2018-04-23T12:55:20.597Z,44.45
2018-04-23T12:57:46.897Z,42.36
2018-04-23T13:00:13.189Z,43.16
2018-04-23T13:02:39.612Z,40.84
2018-04-23T13:05:05.898Z,38.77
2018-04-23T13:07:32.190Z,38.74
2018-04-23T13:09:58.505Z,37.66
2018-04-23T13:12:24.759Z,35.76
2018-04-23T13:14:51.007Z,30.90
2018-04-23T13:17:17.271Z,30.34
2018-04-23T13:19:43.611Z,30.22
2018-04-23T13:22:09.889Z,30.77
2018-04-23T13:24:36.257Z,28.18
2018-04-23T13:27:03.252Z,26.78
2018-04-23T13:29:29.616Z,30.43
2018-04-23T13:31:55.915Z,27.80
2018-04-23T13:34:22.319Z,24.42
2018-04-23T13:36:48.595Z,23.16
2018-04-23T13:39:14.896Z,21.77
2018-04-23T13:41:41.187Z,20.98
2018-04-23T13:44:08.203Z,23.11
2018-04-23T13:46:34.493Z,22.08
2018-04-23T13:49:00.865Z,22.69
2018-04-23T13:51:27.133Z,24.92
2018-04-23T13:53:54.215Z,23.91
2018-04-23T13:56:20.506Z,24.55
2018-04-23T13:58:47.532Z,25.80
2018-04-23T14:01:13.765Z,29.14
2018-04-23T14:03:40.041Z,29.11
2018-04-23T14:06:06.403Z,29.52
2018-04-23T14:08:32.719Z,32.75
2018-04-23T14:10:59.008Z,35.11
2018-04-23T14:13:26.046Z,36.85
2018-04-23T14:15:53.239Z,37.29
2018-04-23T14:18:19.504Z,36.45
2018-04-23T14:20:45.823Z,36.46
2018-04-23T14:23:12.131Z,34.21
2018-04-23T14:25:38.429Z,32.96
2018-04-23T14:28:05.545Z,31.85
2018-04-23T14:30:31.830Z,32.40
2018-04-23T14:32:58.124Z,32.40
2018-04-23T14:35:25.146Z,34.71
2018-04-23T14:37:51.423Z,34.57
2018-04-23T14:40:17.735Z,30.91
2018-04-23T14:42:44.759Z,27.10
2018-04-23T14:45:11.071Z,26.30
2018-04-23T14:47:38.367Z,30.15
2018-04-23T14:50:05.414Z,32.39
2018-04-23T14:52:32.456Z,35.28
2018-04-23T14:54:59.505Z,36.85
2018-04-23T14:57:25.792Z,39.07
2018-04-23T14:59:52.116Z,39.56
2018-04-23T15:02:18.435Z,39.32
2018-04-23T15:04:44.690Z,39.30
2018-04-23T15:07:10.957Z,40.64
2018-04-23T15:09:37.473Z,47.52
2018-04-23T15:12:04.819Z,51.11
2018-04-23T15:14:31.154Z,57.07
2018-04-23T15:16:57.456Z,59.47
2018-04-23T15:19:23.777Z,66.78
2018-04-23T15:21:50.063Z,68.74
2018-04-23T15:24:16.468Z,71.79
2018-04-23T15:26:42.767Z,77.09
2018-04-23T15:29:09.135Z,76.42
2018-04-23T15:31:35.447Z,77.94
2018-04-23T15:34:01.771Z,75.79
2018-04-23T15:36:28.033Z,77.00
2018-04-23T15:38:54.469Z,75.28
2018-04-23T15:41:20.788Z,75.14
2018-04-23T15:43:47.077Z,74.98
2018-04-23T15:46:13.408Z,73.97
2018-04-23T15:48:39.740Z,72.63
2018-04-23T15:51:06.058Z,72.34
2018-04-23T15:53:33.188Z,72.10
2018-04-23T15:55:59.559Z,72.66
2018-04-23T15:58:26.877Z,72.54
2018-04-23T16:00:53.185Z,71.29
2018-04-23T16:03:19.570Z,71.05
2018-04-23T16:05:45.835Z,70.77
2018-04-23T16:08:12.124Z,71.49
2018-04-23T16:10:39.184Z,71.91
2018-04-23T16:13:05.518Z,71.34
2018-04-23T16:15:31.840Z,71.41
2018-04-23T16:17:58.888Z,70.40
2018-04-23T16:20:25.211Z,68.53
2018-04-23T16:22:52.245Z,67.68
2018-04-23T16:25:19.401Z,68.02
2018-04-23T16:27:46.455Z,68.07
2018-04-23T16:30:13.567Z,68.32
2018-04-23T16:32:39.956Z,69.21
2018-04-23T16:35:06.321Z,71.31
2018-04-23T16:37:32.650Z,72.30
2018-04-23T16:39:59.017Z,72.87
2018-04-23T16:42:26.077Z,73.00
2018-04-23T16:44:53.209Z,73.32
2018-04-23T16:47:19.573Z,73.23
2018-04-23T16:49:46.776Z,73.56
2018-04-23T16:52:13.191Z,73.70
2018-04-23T16:54:39.586Z,73.37
2018-04-23T16:57:05.890Z,72.65
2018-04-23T16:59:33.210Z,73.64
2018-04-23T17:01:59.546Z,73.77
2018-04-23T17:04:25.843Z,73.93
2018-04-23T17:06:52.165Z,74.88
2018-04-23T17:09:19.304Z,74.16
2018-04-23T17:11:46.351Z,73.73
2018-04-23T17:14:13.467Z,74.20
2018-04-23T17:16:39.731Z,74.21
2018-04-23T17:19:07.044Z,74.54
2018-04-23T17:21:33.433Z,74.29
2018-04-23T17:23:59.730Z,73.85
2018-04-23T17:26:26.014Z,74.56
2018-04-23T17:28:52.309Z,74.08
2018-04-23T17:31:19.385Z,74.22
2018-04-23T17:33:45.854Z,74.11
2018-04-23T17:36:13.004Z,73.72
2018-04-23T17:38:39.376Z,73.53
2018-04-23T17:41:06.452Z,72.88
2018-04-23T17:43:32.900Z,73.22
2018-04-23T17:45:59.244Z,72.72
2018-04-23T17:48:25.646Z,72.93
2018-04-23T17:50:52.008Z,73.82
2018-04-23T17:53:18.324Z,73.79
2018-04-23T17:55:44.651Z,74.54
2018-04-23T17:58:11.018Z,74.93
2018-04-23T18:00:37.422Z,75.57
2018-04-23T18:03:03.807Z,75.33
2018-04-23T18:05:30.913Z,75.41
2018-04-23T18:07:57.200Z,74.68
2018-04-23T18:10:24.326Z,73.92
2018-04-23T18:12:50.726Z,73.34
2018-04-23T18:15:17.074Z,73.32
2018-04-23T18:17:43.391Z,73.09
2018-04-23T18:20:09.754Z,72.72
2018-04-23T18:22:36.195Z,71.96
2018-04-23T18:25:03.505Z,70.87
2018-04-23T18:27:29.787Z,70.96
2018-04-23T18:29:56.871Z,70.26
2018-04-23T18:32:23.154Z,71.83
2018-04-23T18:34:49.656Z,71.33
2018-04-23T18:37:16.004Z,71.45
2018-04-23T18:39:42.367Z,71.67
2018-04-23T18:42:09.446Z,71.87
2018-04-23T18:44:35.831Z,71.90
2018-04-23T18:47:02.269Z,71.95
2018-04-23T18:49:28.601Z,71.93
2018-04-23T18:51:54.968Z,72.56
2018-04-23T18:54:21.324Z,72.64
2018-04-23T18:56:47.667Z,72.17
2018-04-23T18:59:14.045Z,71.94
2018-04-23T19:01:41.113Z,71.62
2018-04-23T19:04:07.546Z,71.49
2018-04-23T19:06:33.845Z,71.67
2018-04-23T19:09:00.186Z,73.45
2018-04-23T19:11:27.219Z,74.43
2018-04-23T19:13:53.534Z,75.18
2018-04-23T19:16:19.818Z,75.27
2018-04-23T19:18:46.097Z,75.60
2018-04-23T19:21:12.445Z,75.26
2018-04-23T19:23:38.717Z,75.57
2018-04-23T19:26:05.090Z,75.62
2018-04-23T19:28:31.396Z,75.11
2018-04-23T19:30:57.697Z,74.10
2018-04-23T19:33:24.062Z,74.35
2018-04-23T19:35:50.385Z,74.22
2018-04-23T19:38:16.803Z,73.32
2018-04-23T19:40:43.102Z,72.64
2018-04-23T19:43:09.436Z,71.13
2018-04-23T19:45:36.505Z,70.29
2018-04-23T19:48:02.834Z,70.58
2018-04-23T19:50:29.177Z,70.04
2018-04-23T19:52:55.491Z,69.40
2018-04-23T19:55:22.599Z,69.15
2018-04-23T19:57:48.969Z,68.61
2018-04-23T20:00:15.258Z,68.48
2018-04-23T20:02:41.544Z,68.23
2018-04-23T20:05:07.830Z,68.58
2018-04-23T20:07:34.107Z,68.99
2018-04-23T20:10:00.399Z,70.01
2018-04-23T20:12:26.763Z,70.60
2018-04-23T20:14:53.140Z,72.08
2018-04-23T20:17:19.481Z,72.58
2018-04-23T20:19:45.836Z,72.85
2018-04-23T20:22:12.166Z,71.50
2018-04-23T20:24:39.285Z,70.13
2018-04-23T20:27:05.617Z,69.88
2018-04-23T20:29:31.900Z,68.84
2018-04-23T20:31:58.246Z,69.03
2018-04-23T20:34:24.531Z,69.04
2018-04-23T20:36:50.844Z,69.61
2018-04-23T20:39:17.189Z,69.41
2018-04-23T20:41:43.487Z,68.77
2018-04-23T20:44:09.863Z,68.66
2018-04-23T20:46:37.103Z,68.97
2018-04-23T20:49:03.493Z,68.87
2018-04-23T20:51:29.833Z,68.68
2018-04-23T20:53:56.354Z,68.58
2018-04-23T20:56:22.625Z,68.69
2018-04-23T20:58:48.915Z,69.01
2018-04-23T21:01:15.195Z,68.36
2018-04-23T21:03:41.486Z,68.81
2018-04-23T21:06:07.761Z,68.68
2018-04-23T21:08:34.055Z,69.45
2018-04-23T21:11:00.384Z,70.11
2018-04-23T21:13:26.654Z,70.25
2018-04-23T21:15:54.422Z,69.98
2018-04-23T21:18:21.449Z,69.83
2018-04-23T21:20:47.755Z,69.52
2018-04-23T21:23:14.024Z,69.30
2018-04-23T21:25:40.375Z,67.86
2018-04-23T21:28:07.395Z,67.54
2018-04-23T21:30:33.690Z,65.97
2018-04-23T21:32:59.958Z,65.14
2018-04-23T21:35:26.269Z,64.81
2018-04-23T21:37:52.617Z,65.26
2018-04-23T21:40:19.014Z,65.38
2018-04-23T21:42:45.271Z,65.39
2018-04-23T21:45:11.601Z,65.01
2018-04-23T21:47:37.923Z,64.32
2018-04-23T21:50:04.229Z,63.85
2018-04-23T21:52:30.563Z,64.09
2018-04-23T21:54:56.866Z,63.34
2018-04-23T21:57:23.912Z,63.00
2018-04-23T21:59:50.990Z,63.48
2018-04-23T22:02:17.246Z,64.23
2018-04-23T22:04:43.581Z,64.19
2018-04-23T22:07:09.926Z,63.73
2018-04-23T22:09:36.199Z,63.74
2018-04-23T22:12:02.496Z,64.09
2018-04-23T22:14:29.523Z,64.05
2018-04-23T22:16:55.802Z,64.15
2018-04-23T22:19:22.097Z,64.30
2018-04-23T22:21:48.442Z,64.14
2018-04-23T22:24:15.490Z,64.40
2018-04-23T22:26:42.541Z,64.56
2018-04-23T22:29:08.797Z,64.71
2018-04-23T22:31:35.121Z,65.14
2018-04-23T22:34:01.467Z,64.86
2018-04-23T22:36:27.762Z,65.39
2018-04-23T22:38:54.826Z,65.61
2018-04-23T22:41:21.099Z,64.60
2018-04-23T22:43:47.349Z,66.30
2018-04-23T22:46:13.609Z,68.72
2018-04-23T22:48:40.679Z,69.11
2018-04-23T22:51:06.977Z,68.56
2018-04-23T22:53:34.000Z,68.65
2018-04-23T22:56:00.280Z,67.20
2018-04-23T22:58:26.581Z,67.27
2018-04-23T23:00:53.603Z,67.59
2018-04-23T23:03:19.870Z,68.81
2018-04-23T23:05:46.895Z,69.62
2018-04-23T23:08:13.181Z,69.80
2018-04-23T23:10:39.466Z,70.09
2018-04-23T23:13:05.750Z,70.31
2018-04-23T23:15:32.057Z,69.79
2018-04-23T23:17:58.386Z,70.13
2018-04-23T23:20:24.647Z,69.93
2018-04-23T23:22:50.903Z,69.48
2018-04-23T23:25:17.187Z,69.59
2018-04-23T23:27:43.502Z,69.64
2018-04-23T23:30:09.757Z,69.88
2018-04-23T23:32:36.013Z,70.15
2018-04-23T23:35:02.721Z,70.66
2018-04-23T23:37:29.001Z,70.82
2018-04-23T23:39:55.297Z,71.07
2018-04-23T23:42:21.586Z,70.77
2018-04-23T23:44:48.608Z,69.66
2018-04-23T23:47:14.868Z,68.90
2018-04-23T23:49:41.193Z,68.56
2018-04-23T23:52:08.229Z,67.88
2018-04-23T23:54:35.218Z,68.16
2018-04-23T23:57:01.514Z,67.77
2018-04-23T23:59:28.510Z,67.44
